createdAt,value
2023-01-19T00:01:26.723Z,0.63
2023-01-19T00:03:53.537Z,0.61
2023-01-19T00:06:20.329Z,0.64
2023-01-19T00:08:48.840Z,0.66
2023-01-19T00:11:19.859Z,0.63
2023-01-19T00:13:50.750Z,0.64
2023-01-19T00:16:20.035Z,0.63
2023-01-19T00:18:46.649Z,0.61
2023-01-19T00:21:14.931Z,0.57
2023-01-19T00:23:42.879Z,0.55
2023-01-19T00:26:10.751Z,0.58
2023-01-19T00:28:37.422Z,0.58
2023-01-19T00:31:04.219Z,0.55
2023-01-19T00:33:32.434Z,0.55
2023-01-19T00:36:01.709Z,0.58
2023-01-19T00:38:28.856Z,0.61
2023-01-19T00:40:56.948Z,0.61
2023-01-19T00:43:23.774Z,0.58
2023-01-19T00:45:51.185Z,0.58
2023-01-19T00:48:17.988Z,0.58
2023-01-19T00:50:44.656Z,0.58
2023-01-19T00:53:11.462Z,0.61
2023-01-19T00:55:38.214Z,0.61
2023-01-19T00:58:05.071Z,0.59
2023-01-19T01:00:32.030Z,0.61
2023-01-19T01:02:59.368Z,0.56
2023-01-19T01:05:26.385Z,0.48
2023-01-19T01:07:53.142Z,0.48
2023-01-19T01:10:26.443Z,0.56
2023-01-19T01:12:57.385Z,0.57
2023-01-19T01:15:27.174Z,0.56
2023-01-19T01:17:54.469Z,0.65
2023-01-19T01:20:25.450Z,0.71
2023-01-19T01:22:53.817Z,0.69
2023-01-19T01:25:22.841Z,0.66
2023-01-19T01:27:50.408Z,0.68
2023-01-19T01:30:17.373Z,0.67
2023-01-19T01:32:44.140Z,0.64
2023-01-19T01:35:11.977Z,0.61
2023-01-19T01:37:39.407Z,0.66
2023-01-19T01:40:09.898Z,0.71
2023-01-19T01:42:36.622Z,0.77
2023-01-19T01:45:21.308Z,0.79
2023-01-19T01:47:50.050Z,0.71
2023-01-19T01:50:25.370Z,0.67
2023-01-19T01:53:07.115Z,0.65
2023-01-19T01:55:41.423Z,0.67
2023-01-19T01:58:11.471Z,0.61
2023-01-19T02:01:01.339Z,0.59
2023-01-19T02:03:28.596Z,0.61
2023-01-19T02:06:01.991Z,0.59
2023-01-19T02:08:53.032Z,0.61
2023-01-19T02:11:38.584Z,0.51
2023-01-19T02:14:05.900Z,0.48
2023-01-19T02:16:35.062Z,0.69
2023-01-19T02:19:01.886Z,0.73
2023-01-19T02:21:53.233Z,0.71
2023-01-19T02:24:20.621Z,0.71
2023-01-19T02:26:48.377Z,0.71
2023-01-19T02:29:18.021Z,0.73
2023-01-19T02:31:45.601Z,0.74
2023-01-19T02:34:15.544Z,0.75
2023-01-19T02:36:47.944Z,0.71
2023-01-19T02:39:19.752Z,0.70
2023-01-19T02:41:50.941Z,0.68
2023-01-19T02:44:21.062Z,0.68
2023-01-19T02:46:47.755Z,0.71
2023-01-19T02:49:14.748Z,0.75
2023-01-19T02:51:44.607Z,0.63
2023-01-19T02:54:44.691Z,0.72
2023-01-19T02:57:14.120Z,0.69
2023-01-19T02:59:56.376Z,0.66
2023-01-19T03:02:25.919Z,0.66
2023-01-19T03:05:08.400Z,0.66
2023-01-19T03:08:16.102Z,0.63
2023-01-19T03:10:51.892Z,0.64
2023-01-19T03:13:56.038Z,0.57
2023-01-19T03:16:38.761Z,0.42
2023-01-19T03:19:20.499Z,0.29
2023-01-19T03:21:56.149Z,0.33
2023-01-19T03:24:25.341Z,0.36
2023-01-19T03:26:58.846Z,0.29
2023-01-19T03:29:30.216Z,0.40
2023-01-19T03:31:59.824Z,0.25
2023-01-19T03:34:29.038Z,0.17
2023-01-19T03:37:02.091Z,0.22
2023-01-19T03:39:29.205Z,0.29
2023-01-19T03:42:03.149Z,0.25
2023-01-19T03:44:32.282Z,0.25
2023-01-19T03:46:59.838Z,0.31
2023-01-19T03:49:27.234Z,0.29
2023-01-19T03:51:59.031Z,0.11
2023-01-19T03:54:26.495Z,0.22
2023-01-19T03:56:53.225Z,0.25
2023-01-19T03:59:21.823Z,0.14
2023-01-19T04:01:49.074Z,0.26
2023-01-19T04:04:15.956Z,0.29
2023-01-19T04:06:43.927Z,0.24
2023-01-19T04:09:10.788Z,0.33
2023-01-19T04:11:37.591Z,0.28
2023-01-19T04:14:04.735Z,0.20
2023-01-19T04:16:31.458Z,0.24
2023-01-19T04:18:58.215Z,0.30
2023-01-19T04:21:25.034Z,0.37
2023-01-19T04:23:53.181Z,0.33
2023-01-19T04:26:20.042Z,0.35
2023-01-19T04:28:46.777Z,0.36
2023-01-19T04:31:14.491Z,0.32
2023-01-19T04:33:41.309Z,0.34
2023-01-19T04:36:08.843Z,0.33
2023-01-19T04:38:36.196Z,0.34
2023-01-19T04:41:02.960Z,0.31
2023-01-19T04:43:29.749Z,0.31
2023-01-19T04:45:56.933Z,0.30
2023-01-19T04:48:23.695Z,0.32
2023-01-19T04:50:51.392Z,0.34
2023-01-19T04:53:18.546Z,0.44
2023-01-19T04:55:45.318Z,0.47
2023-01-19T04:58:12.020Z,0.52
2023-01-19T05:00:38.805Z,0.57
2023-01-19T05:03:06.002Z,0.57
2023-01-19T05:05:33.373Z,0.49
2023-01-19T05:08:00.744Z,0.44
2023-01-19T05:10:27.584Z,0.50
2023-01-19T05:13:02.590Z,0.60
2023-01-19T05:15:29.779Z,0.63
2023-01-19T05:18:02.806Z,0.56
2023-01-19T05:20:29.620Z,0.61
2023-01-19T05:22:56.359Z,0.60
2023-01-19T05:25:23.129Z,0.61
2023-01-19T05:27:49.943Z,0.62
2023-01-19T05:30:17.166Z,0.67
2023-01-19T05:32:44.196Z,0.73
2023-01-19T05:35:10.969Z,0.74
2023-01-19T05:37:37.719Z,0.73
2023-01-19T05:40:05.130Z,0.76
2023-01-19T05:42:32.918Z,0.75
2023-01-19T05:45:00.373Z,0.82
2023-01-19T05:47:29.955Z,0.84
2023-01-19T05:49:56.912Z,0.83
2023-01-19T05:52:25.214Z,0.85
2023-01-19T05:54:52.306Z,0.94
2023-01-19T05:57:19.164Z,0.89
2023-01-19T05:59:45.935Z,0.88
2023-01-19T06:02:14.089Z,0.84
2023-01-19T06:04:40.864Z,0.91
2023-01-19T06:07:07.631Z,0.94
2023-01-19T06:09:34.446Z,0.96
2023-01-19T06:12:01.166Z,1.02
2023-01-19T06:14:28.236Z,1.08
2023-01-19T06:16:55.023Z,1.05
2023-01-19T06:19:21.852Z,1.01
2023-01-19T06:21:52.299Z,0.99
2023-01-19T06:24:19.665Z,1.09
2023-01-19T06:26:46.536Z,1.05
2023-01-19T06:29:13.845Z,1.09
2023-01-19T06:31:43.238Z,1.11
2023-01-19T06:34:10.579Z,1.12
2023-01-19T06:36:37.507Z,1.10
2023-01-19T06:39:06.283Z,1.11
2023-01-19T06:41:34.313Z,1.15
2023-01-19T06:44:01.520Z,1.14
2023-01-19T06:46:28.791Z,1.15
2023-01-19T06:48:55.917Z,1.20
2023-01-19T06:51:23.489Z,1.27
2023-01-19T06:53:50.329Z,1.25
2023-01-19T06:56:17.116Z,1.25
2023-01-19T06:58:44.406Z,1.29
2023-01-19T07:01:11.297Z,1.31
2023-01-19T07:03:38.638Z,1.30
2023-01-19T07:06:08.826Z,1.29
2023-01-19T07:08:37.067Z,1.24
2023-01-19T07:11:25.361Z,1.23
2023-01-19T07:13:55.725Z,1.19
2023-01-19T07:16:23.324Z,1.20
2023-01-19T07:18:50.376Z,1.25
2023-01-19T07:21:17.787Z,1.24
2023-01-19T07:23:44.735Z,1.26
2023-01-19T07:26:11.566Z,1.28
2023-01-19T07:28:38.354Z,1.29
2023-01-19T07:31:05.263Z,1.33
2023-01-19T07:33:32.064Z,1.31
2023-01-19T07:35:58.876Z,1.29
2023-01-19T07:38:25.882Z,1.31
2023-01-19T07:40:54.073Z,1.27
2023-01-19T07:43:22.817Z,1.23
2023-01-19T07:45:49.575Z,1.23
2023-01-19T07:48:16.565Z,1.23
2023-01-19T07:50:43.281Z,1.27
2023-01-19T07:53:14.156Z,1.32
2023-01-19T07:55:40.865Z,1.37
2023-01-19T07:58:07.669Z,1.33
2023-01-19T08:00:35.658Z,1.27
2023-01-19T08:03:03.592Z,1.24
2023-01-19T08:05:31.373Z,1.30
2023-01-19T08:07:59.065Z,1.34
2023-01-19T08:10:31.995Z,1.34
2023-01-19T08:13:01.796Z,1.33
2023-01-19T08:15:28.843Z,1.36
2023-01-19T08:18:00.530Z,1.28
2023-01-19T08:20:28.568Z,1.33
2023-01-19T08:23:03.120Z,1.34
2023-01-19T08:25:45.308Z,1.33
2023-01-19T08:28:14.884Z,1.33
2023-01-19T08:30:44.357Z,1.35
2023-01-19T08:33:22.509Z,1.34
2023-01-19T08:35:52.037Z,1.28
2023-01-19T08:38:19.195Z,1.33
2023-01-19T08:40:46.293Z,1.28
2023-01-19T08:43:16.645Z,1.26
2023-01-19T08:45:49.574Z,1.27
2023-01-19T08:48:18.742Z,1.28
2023-01-19T08:50:49.803Z,1.31
2023-01-19T08:53:17.160Z,1.20
2023-01-19T08:55:43.903Z,1.34
2023-01-19T08:58:10.942Z,1.36
2023-01-19T09:00:39.400Z,1.45
2023-01-19T09:03:07.967Z,1.49
2023-01-19T09:05:38.860Z,1.59
2023-01-19T09:08:11.087Z,1.64
2023-01-19T09:10:39.264Z,1.64
2023-01-19T09:13:16.957Z,1.61
2023-01-19T09:15:43.996Z,1.52
2023-01-19T09:18:15.859Z,1.38
2023-01-19T09:20:44.385Z,1.52
2023-01-19T09:23:13.225Z,1.57
2023-01-19T09:25:41.709Z,1.53
2023-01-19T09:28:10.351Z,1.55
2023-01-19T09:30:41.406Z,1.48
2023-01-19T09:33:11.695Z,1.48
2023-01-19T09:35:40.036Z,1.44
2023-01-19T09:38:09.117Z,1.44
2023-01-19T09:40:42.178Z,1.43
2023-01-19T09:43:33.831Z,1.50
2023-01-19T09:46:11.956Z,1.55
2023-01-19T09:48:59.829Z,1.52
2023-01-19T09:51:38.443Z,1.45
2023-01-19T09:54:14.210Z,1.47
2023-01-19T09:56:44.345Z,1.28
2023-01-19T09:59:29.966Z,1.43
2023-01-19T10:02:08.123Z,1.46
2023-01-19T10:04:47.978Z,1.50
2023-01-19T10:07:38.814Z,1.49
2023-01-19T10:10:48.104Z,1.44
2023-01-19T10:13:44.027Z,1.48
2023-01-19T10:16:35.049Z,1.49
2023-01-19T10:19:22.806Z,1.41
2023-01-19T10:21:51.609Z,1.38
2023-01-19T10:24:25.892Z,1.33
2023-01-19T10:26:57.000Z,1.29
2023-01-19T10:29:37.702Z,1.36
2023-01-19T10:32:24.502Z,1.31
2023-01-19T10:34:52.391Z,1.33
2023-01-19T10:37:34.225Z,1.40
2023-01-19T10:40:13.116Z,1.40
2023-01-19T10:42:45.148Z,1.40
2023-01-19T10:45:17.523Z,1.37
2023-01-19T10:47:46.330Z,1.34
2023-01-19T10:50:28.896Z,1.23
2023-01-19T10:52:58.472Z,1.32
2023-01-19T10:55:31.087Z,1.35
2023-01-19T10:57:59.348Z,1.37
2023-01-19T11:00:32.684Z,1.39
2023-01-19T11:03:00.208Z,1.40
2023-01-19T11:05:30.956Z,1.39
2023-01-19T11:07:57.883Z,1.40
2023-01-19T11:10:30.341Z,1.31
2023-01-19T11:13:26.736Z,1.41
2023-01-19T11:15:59.784Z,1.40
2023-01-19T11:18:41.015Z,1.46
2023-01-19T11:21:17.729Z,1.44
2023-01-19T11:23:51.293Z,1.43
2023-01-19T11:26:34.347Z,1.43
2023-01-19T11:29:05.217Z,1.43
2023-01-19T11:31:35.876Z,1.43
2023-01-19T11:34:06.053Z,1.50
2023-01-19T11:36:36.432Z,1.49
2023-01-19T11:39:12.555Z,1.45
2023-01-19T11:41:40.219Z,1.41
2023-01-19T11:44:26.353Z,1.28
2023-01-19T11:46:57.706Z,1.44
2023-01-19T11:49:42.750Z,1.38
2023-01-19T11:52:37.832Z,1.31
2023-01-19T11:55:21.988Z,1.33
2023-01-19T11:57:58.079Z,1.38
2023-01-19T12:00:45.673Z,1.37
2023-01-19T12:03:24.519Z,1.32
2023-01-19T12:06:01.149Z,1.40
2023-01-19T12:08:52.979Z,1.39
2023-01-19T12:11:25.546Z,1.35
2023-01-19T12:13:53.964Z,1.31
2023-01-19T12:16:22.599Z,1.30
2023-01-19T12:19:21.103Z,1.31
2023-01-19T12:21:48.565Z,1.33
2023-01-19T12:24:23.313Z,1.33
2023-01-19T12:27:07.603Z,1.37
2023-01-19T12:29:35.893Z,1.39
2023-01-19T12:32:14.948Z,1.40
2023-01-19T12:34:49.687Z,1.42
2023-01-19T12:37:36.621Z,1.44
2023-01-19T12:40:17.512Z,1.48
2023-01-19T12:42:54.095Z,1.46
2023-01-19T12:45:29.420Z,1.48
2023-01-19T12:47:58.393Z,1.50
2023-01-19T12:50:26.922Z,1.40
2023-01-19T12:52:58.580Z,1.40
2023-01-19T12:55:33.345Z,1.52
2023-01-19T12:58:23.165Z,1.57
2023-01-19T13:01:10.756Z,1.57
2023-01-19T13:04:02.164Z,1.47
2023-01-19T13:06:47.307Z,1.41
2023-01-19T13:09:37.747Z,1.44
2023-01-19T13:12:51.566Z,1.42
2023-01-19T13:15:34.760Z,1.43
2023-01-19T13:18:07.035Z,1.46
2023-01-19T13:20:46.820Z,1.47
2023-01-19T13:23:28.177Z,1.45
2023-01-19T13:26:03.029Z,1.41
2023-01-19T13:28:42.702Z,1.42
2023-01-19T13:31:11.288Z,1.47
2023-01-19T13:33:52.583Z,1.46
2023-01-19T13:36:26.296Z,1.47
2023-01-19T13:38:54.488Z,1.50
2023-01-19T13:41:26.043Z,1.59
2023-01-19T13:44:01.525Z,1.66
2023-01-19T13:46:30.605Z,1.67
2023-01-19T13:49:01.227Z,1.71
2023-01-19T13:51:28.048Z,1.65
2023-01-19T13:53:59.790Z,1.63
2023-01-19T13:56:29.002Z,1.62
2023-01-19T13:59:02.005Z,1.54
2023-01-19T14:01:30.277Z,1.55
2023-01-19T14:03:57.653Z,1.53
2023-01-19T14:06:37.325Z,1.52
2023-01-19T14:09:14.855Z,1.49
2023-01-19T14:11:41.602Z,1.46
2023-01-19T14:14:28.202Z,1.41
2023-01-19T14:16:54.920Z,1.37
2023-01-19T14:19:22.019Z,1.32
2023-01-19T14:22:02.110Z,1.34
2023-01-19T14:24:32.075Z,1.44
2023-01-19T14:27:19.461Z,1.39
2023-01-19T14:29:50.047Z,1.43
2023-01-19T14:32:25.311Z,1.47
2023-01-19T14:35:14.026Z,1.48
2023-01-19T14:37:49.512Z,1.45
2023-01-19T14:40:18.546Z,1.43
2023-01-19T14:42:45.076Z,1.41
2023-01-19T14:45:25.107Z,1.42
2023-01-19T14:48:04.005Z,1.43
2023-01-19T14:50:36.860Z,1.46
2023-01-19T14:53:07.470Z,1.52
2023-01-19T14:55:43.321Z,1.51
2023-01-19T14:58:15.767Z,1.47
2023-01-19T15:00:43.759Z,1.45
2023-01-19T15:03:10.791Z,1.40
2023-01-19T15:05:39.107Z,1.32
2023-01-19T15:08:08.558Z,1.29
2023-01-19T15:10:36.340Z,1.32
2023-01-19T15:13:03.074Z,1.40
2023-01-19T15:15:33.908Z,1.42
2023-01-19T15:18:04.030Z,1.40
2023-01-19T15:20:30.779Z,1.37
2023-01-19T15:22:57.647Z,1.38
2023-01-19T15:25:27.592Z,1.36
2023-01-19T15:28:01.292Z,1.36
2023-01-19T15:30:33.722Z,1.35
2023-01-19T15:33:04.305Z,1.31
2023-01-19T15:35:31.444Z,1.32
2023-01-19T15:37:58.320Z,1.27
2023-01-19T15:40:25.173Z,1.22
2023-01-19T15:42:51.871Z,1.28
2023-01-19T15:45:37.952Z,1.36
2023-01-19T15:48:08.017Z,1.43
2023-01-19T15:50:46.210Z,1.48
2023-01-19T15:53:19.539Z,1.50
2023-01-19T15:55:50.479Z,1.51
2023-01-19T15:58:18.589Z,1.51
2023-01-19T16:00:55.493Z,1.38
2023-01-19T16:03:23.202Z,1.31
2023-01-19T16:05:50.060Z,1.29
2023-01-19T16:08:20.320Z,1.25
2023-01-19T16:10:47.084Z,1.24
2023-01-19T16:13:16.336Z,1.27
2023-01-19T16:15:43.150Z,1.29
2023-01-19T16:18:10.082Z,1.29
2023-01-19T16:20:36.870Z,1.28
2023-01-19T16:23:14.591Z,0.93
2023-01-19T16:25:42.265Z,1.20
2023-01-19T16:28:09.283Z,1.12
2023-01-19T16:30:36.207Z,1.06
2023-01-19T16:33:02.997Z,1.12
2023-01-19T16:35:29.722Z,1.07
2023-01-19T16:37:56.506Z,0.93
2023-01-19T16:40:23.270Z,1.07
2023-01-19T16:42:50.771Z,1.08
2023-01-19T16:45:17.596Z,1.10
2023-01-19T16:47:45.548Z,1.13
2023-01-19T16:50:14.847Z,1.12
2023-01-19T16:52:42.684Z,1.06
2023-01-19T16:55:11.271Z,1.03
2023-01-19T16:57:41.347Z,1.09
2023-01-19T17:00:10.652Z,1.08
2023-01-19T17:02:37.734Z,1.07
2023-01-19T17:05:04.874Z,1.03
2023-01-19T17:07:33.692Z,1.03
2023-01-19T17:10:00.846Z,1.03
2023-01-19T17:12:27.643Z,0.96
2023-01-19T17:14:54.335Z,0.94
2023-01-19T17:17:21.596Z,0.99
2023-01-19T17:19:48.366Z,0.99
2023-01-19T17:22:15.199Z,1.01
2023-01-19T17:24:43.351Z,0.95
2023-01-19T17:27:10.661Z,0.94
2023-01-19T17:29:37.466Z,0.99
2023-01-19T17:32:04.400Z,0.99
2023-01-19T17:34:31.194Z,1.00
2023-01-19T17:37:03.096Z,0.93
2023-01-19T17:39:30.615Z,1.06
2023-01-19T17:41:57.781Z,0.94
2023-01-19T17:44:25.078Z,0.86
2023-01-19T17:46:51.891Z,0.77
2023-01-19T17:49:18.655Z,0.88
2023-01-19T17:51:46.908Z,0.82
2023-01-19T17:54:14.585Z,0.89
2023-01-19T17:56:41.745Z,0.99
2023-01-19T17:59:08.741Z,1.08
2023-01-19T18:01:40.543Z,1.13
2023-01-19T18:04:08.743Z,1.21
2023-01-19T18:06:36.407Z,1.10
2023-01-19T18:09:05.013Z,1.05
2023-01-19T18:11:31.816Z,1.09
2023-01-19T18:14:00.194Z,1.12
2023-01-19T18:16:28.606Z,1.05
2023-01-19T18:21:40.647Z,1.06
2023-01-19T18:24:07.696Z,1.00
2023-01-19T18:26:35.471Z,1.02
2023-01-19T18:29:02.252Z,1.01
2023-01-19T18:31:29.087Z,1.00
2023-01-19T18:34:03.798Z,1.02
2023-01-19T18:36:32.756Z,1.05
2023-01-19T18:38:59.604Z,1.08
2023-01-19T18:41:35.285Z,1.08
2023-01-19T18:44:02.032Z,1.16
2023-01-19T18:46:28.813Z,1.23
2023-01-19T18:48:55.593Z,1.19
2023-01-19T18:51:22.321Z,1.17
2023-01-19T18:53:49.094Z,1.08
2023-01-19T18:56:16.484Z,1.13
2023-01-19T18:58:43.948Z,1.16
2023-01-19T19:01:20.879Z,1.14
2023-01-19T19:03:48.087Z,1.02
2023-01-19T19:06:15.777Z,1.15
2023-01-19T19:08:44.235Z,1.16
2023-01-19T19:11:13.927Z,1.14
2023-01-19T19:13:41.336Z,1.01
2023-01-19T19:16:12.417Z,1.03
2023-01-19T19:21:21.876Z,1.09
2023-01-19T19:23:54.255Z,1.12
2023-01-19T19:26:21.879Z,1.18
2023-01-19T19:28:49.006Z,1.17
2023-01-19T19:31:23.616Z,1.19
2023-01-19T19:33:51.427Z,1.20
2023-01-19T19:36:37.254Z,1.14
2023-01-19T19:39:04.293Z,1.33
2023-01-19T19:41:32.478Z,1.33
2023-01-19T19:44:01.686Z,1.30
2023-01-19T19:46:30.298Z,1.30
2023-01-19T19:48:57.124Z,1.36
2023-01-19T19:51:29.435Z,1.37
2023-01-19T19:54:03.286Z,1.40
2023-01-19T19:56:34.076Z,1.42
2023-01-19T19:59:01.240Z,1.33
2023-01-19T20:01:32.995Z,1.37
2023-01-19T20:04:10.457Z,1.37
2023-01-19T20:06:40.260Z,1.32
2023-01-19T20:09:11.165Z,1.33
2023-01-19T20:11:37.941Z,1.35
2023-01-19T20:14:06.574Z,1.38
2023-01-19T20:16:33.340Z,1.39
2023-01-19T20:19:02.997Z,1.41
2023-01-19T20:21:35.746Z,1.47
2023-01-19T20:24:08.627Z,1.46
2023-01-19T20:26:39.285Z,1.45
2023-01-19T20:29:06.994Z,1.48
2023-01-19T20:31:37.359Z,1.45
2023-01-19T20:34:06.768Z,1.46
2023-01-19T20:36:34.076Z,1.41
2023-01-19T20:39:05.408Z,1.42
2023-01-19T20:44:19.268Z,1.50
2023-01-19T20:46:46.186Z,1.49
2023-01-19T20:49:13.623Z,1.53
2023-01-19T20:51:43.529Z,1.55
2023-01-19T20:54:17.782Z,1.57
2023-01-19T20:56:44.683Z,1.55
2023-01-19T20:59:12.022Z,1.45
2023-01-19T21:01:39.604Z,1.62
2023-01-19T21:04:06.837Z,1.63
2023-01-19T21:06:34.202Z,1.59
2023-01-19T21:09:01.061Z,1.57
2023-01-19T21:11:27.934Z,1.57
2023-01-19T21:14:02.026Z,1.54
2023-01-19T21:16:31.528Z,1.54
2023-01-19T21:18:58.731Z,1.52
2023-01-19T21:21:31.479Z,1.50
2023-01-19T21:24:00.690Z,1.43
2023-01-19T21:26:30.018Z,1.41
2023-01-19T21:29:00.933Z,1.40
2023-01-19T21:31:28.533Z,1.41
2023-01-19T21:33:58.664Z,1.42
2023-01-19T21:36:26.095Z,1.48
2023-01-19T21:38:53.167Z,1.48
2023-01-19T21:41:20.018Z,1.46
2023-01-19T21:43:47.949Z,1.47
2023-01-19T21:46:29.991Z,1.50
2023-01-19T21:49:02.270Z,1.48
2023-01-19T21:51:33.606Z,1.39
2023-01-19T21:54:01.160Z,1.45
2023-01-19T21:56:29.391Z,1.49
2023-01-19T21:58:57.060Z,1.53
2023-01-19T22:01:24.354Z,1.53
2023-01-19T22:03:55.779Z,1.47
2023-01-19T22:06:23.567Z,1.51
2023-01-19T22:08:50.516Z,1.49
2023-01-19T22:11:19.668Z,1.49
2023-01-19T22:13:46.644Z,1.52
2023-01-19T22:16:16.868Z,1.58
2023-01-19T22:18:51.475Z,1.66
2023-01-19T22:21:27.545Z,1.60
2023-01-19T22:23:56.518Z,1.70
2023-01-19T22:26:23.858Z,1.72
2023-01-19T22:28:55.145Z,1.74
2023-01-19T22:31:23.486Z,1.72
2023-01-19T22:33:51.012Z,1.72
2023-01-19T22:36:19.406Z,1.74
2023-01-19T22:38:54.499Z,1.73
2023-01-19T22:41:32.389Z,1.75
2023-01-19T22:44:01.170Z,1.69
2023-01-19T22:46:34.106Z,1.63
2023-01-19T22:49:01.721Z,1.70
2023-01-19T22:51:30.015Z,1.75
2023-01-19T22:53:59.793Z,1.79
2023-01-19T22:56:28.512Z,1.88
2023-01-19T22:58:57.964Z,1.77
2023-01-19T23:01:33.696Z,1.91
2023-01-19T23:04:02.564Z,1.97
2023-01-19T23:06:33.517Z,2.00
2023-01-19T23:09:02.271Z,1.97
2023-01-19T23:11:36.579Z,1.95
2023-01-19T23:14:04.571Z,1.95
2023-01-19T23:16:31.259Z,1.96
2023-01-19T23:18:58.760Z,1.95
2023-01-19T23:21:28.428Z,2.00
2023-01-19T23:24:00.795Z,2.02
2023-01-19T23:26:32.755Z,1.98
2023-01-19T23:29:01.732Z,1.99
2023-01-19T23:31:36.219Z,1.98
2023-01-19T23:34:08.254Z,1.98
2023-01-19T23:36:37.135Z,1.96
2023-01-19T23:39:09.959Z,1.97
2023-01-19T23:41:36.836Z,2.01
2023-01-19T23:44:04.086Z,2.03
2023-01-19T23:46:31.027Z,1.98
2023-01-19T23:48:57.846Z,1.93
2023-01-19T23:51:27.453Z,1.97
2023-01-19T23:53:54.758Z,1.98
2023-01-19T23:56:26.817Z,1.96
2023-01-19T23:58:57.187Z,1.93
